Martha's Vineyard, MA

8:08 PM EDT on May 25, 2017 (GMT -0400)
Martha's Vineyard | | Change Station
Active Advisory: Dense Fog Advisory

Elev 66 ft 41.39 °N, 70.61 °W | Updated 15 minutes ago

Fog
Fog
57 °F
Feels Like 57 °F
N
6
Wind Variable Wind from ENE

Today
High -- | Low -- °F
--% Chance of Precip.
Yesterday
High -- | Low -- °F
Precip. -- in
Pressure 29.62 in
Visibility 0.2 miles
Clouds
Dew Point 55 °F
Humidity 93%
Rainfall 0.31 in
Snow Depth Not available.
5:15 AM 8:04 PM
New Moon, 0% visible
METAR KMVY 252353Z 06005KT 1/4SM R24/2400V2800FT FG VV003 14/13 A2962 RMK AO2 SLP031 60006 T01390128 10139 20128 50007
Pressure 29.62 in
Visibility 0.2 miles
Clouds
Dew Point 55 °F
Humidity 93%
Rainfall 0.31 in
Snow Depth Not available.
5:15 AM 8:04 PM
New Moon, 0% visible
METAR KMVY 252353Z 06005KT 1/4SM R24/2400V2800FT FG VV003 14/13 A2962 RMK AO2 SLP031 60006 T01390128 10139 20128 50007

Get Your Daily Forecast Email!

Thanks for signing up!

Be on the lookout for a verification email in your inbox.

You'll start receiving severe weather alerts in your inbox..

×

10-Day Weather Forecast

Almanac

Astronomy

May. 25, 2017 Rise Set
Actual Time
Civil Twilight
Nautical Twilight
Astronomical Twilight
Moon
Length of Visible Light
Length of Day
Tomorrow will be .
, % of the Moon is Illuminated

Today's Extremes

State Highs State Lows

Community

WunderPhotos

Category 6

Welcome to Category 6. This is the collective home for Weather Underground's featured writeups by Dr. Jeff Masters (right), Bob Henson (left), Chris Burt, and other regular contributors.

Nearby

Air Quality

  Air Quality AQ Index Pollutant
Not available.

Snow Depth

Station Depth Elevation

Earthquake Activity

City Distance Mag. Time & Date
Minimum magnitude displayed is 2.5.

Coastal Water Temperatures

Place Temperature

Stations

Nearby Weather Stations

Station Location Temp. Windchill Dew Point Humidity Wind Precip. Elev Updated Type
                   

Watches & Warnings

Dense Fog Advisory
Issued: 7:44 PM EDT May. 25, 2017 – National Weather Service

... Dense fog advisory in effect until 3 am EDT Friday...

The National Weather Service in Taunton has issued a dense fog
advisory, which is in effect until 3 am EDT Friday.

* Location... Cape Cod and the islands.

* Visibilities... one quarter mile or less at times.

* Timing... this evening and into the overnight hours.

* Impacts... poor visibility at times. Motorist are urged to drive
with extra caution and leave plenty of distance ahead of you.


Precautionary/preparedness actions...

A dense fog advisory means visibilities will frequently be
reduced to less than one quarter mile, for at least 3 hours. If
driving, slow down, use your headlights, and leave plenty of
distance ahead of you.



For the latest updates... please visit our webpage at
www.Weather.Gov/Boston

You can follow US on facebook at